This is the latest recevied weather packets stored in our database for station/object BARLOW-WX. If no packets are shown the sender has not sent any weather packets the latest 10 day(s).
| Time | Temp. | Humidity | Pressure | Rain* | Wind** | Luminosity | Snow |
|---|---|---|---|---|---|---|---|
| 1787552179 | 11.67° C | 84% | 987.1 hPa | 0 mm | - | - | - |
| 1787551278 | 11.67° C | 84% | 987.1 hPa | 0 mm | - | - | - |
| 1787550377 | 12.22° C | 82% | 988.2 hPa | 0 mm | - | - | - |
| 1787549478 | 12.22° C | 83% | 987.3 hPa | 0 mm | - | - | - |
| 1787548578 | 12.78° C | 83% | 987.3 hPa | 0 mm | - | - | - |
| 1787547679 | 12.78° C | 83% | 987.3 hPa | 0 mm | - | - | - |
| 1787546778 | 12.78° C | 80% | 987.6 hPa | 0 mm | - | - | - |
| 1787545878 | 13.33° C | 83% | 987.4 hPa | 0 mm | - | - | - |
| 1787544978 | 13.33° C | 83% | 987.4 hPa | 0 mm | - | - | - |
| 1787544080 | 13.33° C | 83% | 987.4 hPa | 0 mm | - | - | - |
| 1787543179 | 13.33° C | 80% | 987.4 hPa | 0 mm | - | - | - |
| 1787542277 | 13.89° C | 79% | 988.1 hPa | 0 mm | - | - | - |
| 1787541377 | 14.44° C | 79% | 988.2 hPa | 0 mm | - | - | - |
| 1787540478 | 14.44° C | 79% | 988.2 hPa | 0 mm | - | - | - |
| 1787539578 | 14.44° C | 76% | 987 hPa | 0 mm | - | - | - |
| 1787538678 | 15° C | 76% | 987.4 hPa | 0 mm | - | - | - |
| 1787537778 | 15° C | 76% | 987.4 hPa | 0 mm | - | - | - |
| 1787536879 | 15° C | 76% | 987.4 hPa | 0 mm | - | - | - |
| 1787535977 | 15.56° C | 71% | 987.7 hPa | 0 mm | - | - | - |
| 1787535077 | 15.56° C | 71% | 987.7 hPa | 0 mm | - | - | - |
| 1787534177 | 15.56° C | 71% | 987.7 hPa | 0 mm | - | - | - |
| 1787533277 | 16.11° C | 71% | 987.7 hPa | 0 mm | - | - | - |
| 1787532377 | 16.11° C | 63% | 987.1 hPa | 0 mm | - | - | - |
| 1787531476 | 16.67° C | 59% | 987.5 hPa | 0 mm | - | - | - |
| 1787530577 | 16.67° C | 59% | 987.5 hPa | 0 mm | - | - | - |
* Rain latest hour (hover to see other rain measurements)
** Current wind speed in m/s (hover to see current wind gust speed)